sensor_id;sensor_type;location;lat;lon;timestamp;P1;durP1;ratioP1;P2;durP2;ratioP2
75216;SDS011;63800;51.972;5.682;2024-01-30T00:01:15;15.52;;;10.85;;
75216;SDS011;63800;51.972;5.682;2024-01-30T00:03:40;19.02;;;11.40;;
75216;SDS011;63800;51.972;5.682;2024-01-30T00:06:06;14.95;;;10.70;;
75216;SDS011;63800;51.972;5.682;2024-01-30T00:08:33;16.25;;;10.88;;
75216;SDS011;63800;51.972;5.682;2024-01-30T00:10:58;18.20;;;11.40;;
75216;SDS011;63800;51.972;5.682;2024-01-30T00:13:24;14.65;;;10.00;;
75216;SDS011;63800;51.972;5.682;2024-01-30T00:15:49;14.25;;;10.07;;
75216;SDS011;63800;51.972;5.682;2024-01-30T00:18:15;16.58;;;10.05;;
75216;SDS011;63800;51.972;5.682;2024-01-30T00:20:41;15.80;;;10.43;;
75216;SDS011;63800;51.972;5.682;2024-01-30T00:23:07;17.00;;;9.57;;
75216;SDS011;63800;51.972;5.682;2024-01-30T00:25:33;13.68;;;10.18;;
75216;SDS011;63800;51.972;5.682;2024-01-30T00:27:58;15.65;;;10.52;;
75216;SDS011;63800;51.972;5.682;2024-01-30T00:30:24;14.45;;;9.52;;
75216;SDS011;63800;51.972;5.682;2024-01-30T00:32:50;16.50;;;9.98;;
75216;SDS011;63800;51.972;5.682;2024-01-30T00:35:15;14.25;;;9.48;;
75216;SDS011;63800;51.972;5.682;2024-01-30T00:37:41;14.25;;;9.80;;
75216;SDS011;63800;51.972;5.682;2024-01-30T00:40:07;14.85;;;9.80;;
75216;SDS011;63800;51.972;5.682;2024-01-30T00:42:35;13.48;;;9.68;;
75216;SDS011;63800;51.972;5.682;2024-01-30T00:45:00;15.05;;;9.90;;
75216;SDS011;63800;51.972;5.682;2024-01-30T00:47:26;14.57;;;10.30;;
75216;SDS011;63800;51.972;5.682;2024-01-30T00:49:52;14.57;;;10.30;;
75216;SDS011;63800;51.972;5.682;2024-01-30T00:52:17;14.52;;;9.57;;
75216;SDS011;63800;51.972;5.682;2024-01-30T00:54:43;14.75;;;10.23;;
75216;SDS011;63800;51.972;5.682;2024-01-30T00:57:08;14.75;;;10.18;;
75216;SDS011;63800;51.972;5.682;2024-01-30T00:59:34;13.77;;;9.90;;
75216;SDS011;63800;51.972;5.682;2024-01-30T01:01:59;13.75;;;9.45;;
75216;SDS011;63800;51.972;5.682;2024-01-30T01:04:25;13.48;;;9.30;;
75216;SDS011;63800;51.972;5.682;2024-01-30T01:06:51;12.95;;;9.50;;
75216;SDS011;63800;51.972;5.682;2024-01-30T01:09:17;15.00;;;9.77;;
75216;SDS011;63800;51.972;5.682;2024-01-30T01:11:42;15.85;;;9.73;;
75216;SDS011;63800;51.972;5.682;2024-01-30T01:14:08;13.07;;;9.55;;
75216;SDS011;63800;51.972;5.682;2024-01-30T01:16:33;13.85;;;9.57;;
75216;SDS011;63800;51.972;5.682;2024-01-30T01:18:59;13.77;;;9.45;;
75216;SDS011;63800;51.972;5.682;2024-01-30T01:21:25;14.43;;;9.32;;
75216;SDS011;63800;51.972;5.682;2024-01-30T01:23:50;15.57;;;9.77;;
75216;SDS011;63800;51.972;5.682;2024-01-30T01:26:16;12.73;;;9.50;;
75216;SDS011;63800;51.972;5.682;2024-01-30T01:28:41;13.57;;;8.82;;
75216;SDS011;63800;51.972;5.682;2024-01-30T01:31:07;12.98;;;9.38;;
75216;SDS011;63800;51.972;5.682;2024-01-30T01:33:33;17.65;;;9.68;;
75216;SDS011;63800;51.972;5.682;2024-01-30T01:35:59;14.43;;;8.88;;
75216;SDS011;63800;51.972;5.682;2024-01-30T01:38:25;15.50;;;10.38;;
75216;SDS011;63800;51.972;5.682;2024-01-30T01:40:50;12.07;;;8.52;;
75216;SDS011;63800;51.972;5.682;2024-01-30T01:43:16;13.45;;;9.02;;
75216;SDS011;63800;51.972;5.682;2024-01-30T01:45:42;14.77;;;9.32;;
75216;SDS011;63800;51.972;5.682;2024-01-30T01:48:07;11.68;;;8.65;;
75216;SDS011;63800;51.972;5.682;2024-01-30T01:50:34;14.40;;;10.05;;
75216;SDS011;63800;51.972;5.682;2024-01-30T01:53:00;12.13;;;8.98;;
75216;SDS011;63800;51.972;5.682;2024-01-30T01:55:27;16.45;;;9.15;;
75216;SDS011;63800;51.972;5.682;2024-01-30T01:57:55;14.85;;;10.18;;
75216;SDS011;63800;51.972;5.682;2024-01-30T02:00:21;15.35;;;10.23;;
75216;SDS011;63800;51.972;5.682;2024-01-30T02:02:47;14.73;;;9.63;;
75216;SDS011;63800;51.972;5.682;2024-01-30T02:05:12;16.50;;;10.00;;
75216;SDS011;63800;51.972;5.682;2024-01-30T02:07:39;15.77;;;9.68;;
75216;SDS011;63800;51.972;5.682;2024-01-30T02:10:05;15.80;;;9.98;;
75216;SDS011;63800;51.972;5.682;2024-01-30T02:12:32;15.15;;;9.93;;
75216;SDS011;63800;51.972;5.682;2024-01-30T02:14:58;14.68;;;9.75;;
75216;SDS011;63800;51.972;5.682;2024-01-30T02:17:25;13.40;;;9.93;;
75216;SDS011;63800;51.972;5.682;2024-01-30T02:19:51;16.77;;;10.13;;
75216;SDS011;63800;51.972;5.682;2024-01-30T02:22:17;13.93;;;9.27;;
75216;SDS011;63800;51.972;5.682;2024-01-30T02:24:44;14.75;;;9.90;;
75216;SDS011;63800;51.972;5.682;2024-01-30T02:27:09;17.13;;;10.23;;
75216;SDS011;63800;51.972;5.682;2024-01-30T02:29:35;15.32;;;9.70;;
75216;SDS011;63800;51.972;5.682;2024-01-30T02:32:00;14.50;;;9.43;;
75216;SDS011;63800;51.972;5.682;2024-01-30T02:34:26;12.55;;;9.55;;
75216;SDS011;63800;51.972;5.682;2024-01-30T02:36:51;13.02;;;9.18;;
75216;SDS011;63800;51.972;5.682;2024-01-30T02:39:17;16.02;;;9.90;;
75216;SDS011;63800;51.972;5.682;2024-01-30T02:41:42;12.52;;;9.15;;
75216;SDS011;63800;51.972;5.682;2024-01-30T02:44:08;14.43;;;9.70;;
75216;SDS011;63800;51.972;5.682;2024-01-30T02:46:33;13.60;;;9.52;;
75216;SDS011;63800;51.972;5.682;2024-01-30T02:48:58;18.42;;;10.13;;
75216;SDS011;63800;51.972;5.682;2024-01-30T02:51:24;18.67;;;9.75;;
75216;SDS011;63800;51.972;5.682;2024-01-30T02:53:49;15.68;;;10.32;;
75216;SDS011;63800;51.972;5.682;2024-01-30T02:56:15;15.50;;;9.80;;
75216;SDS011;63800;51.972;5.682;2024-01-30T02:58:40;16.33;;;9.38;;
75216;SDS011;63800;51.972;5.682;2024-01-30T03:01:06;14.05;;;9.45;;
75216;SDS011;63800;51.972;5.682;2024-01-30T03:03:32;13.18;;;9.93;;
75216;SDS011;63800;51.972;5.682;2024-01-30T03:05:59;13.50;;;9.30;;
75216;SDS011;63800;51.972;5.682;2024-01-30T03:08:24;14.00;;;9.50;;
75216;SDS011;63800;51.972;5.682;2024-01-30T03:10:50;11.95;;;9.10;;
75216;SDS011;63800;51.972;5.682;2024-01-30T03:13:15;13.00;;;9.05;;
75216;SDS011;63800;51.972;5.682;2024-01-30T03:15:40;16.80;;;9.77;;
75216;SDS011;63800;51.972;5.682;2024-01-30T03:18:06;14.85;;;9.75;;
75216;SDS011;63800;51.972;5.682;2024-01-30T03:20:31;12.90;;;9.15;;
75216;SDS011;63800;51.972;5.682;2024-01-30T03:22:57;13.88;;;9.18;;
75216;SDS011;63800;51.972;5.682;2024-01-30T03:25:25;13.38;;;9.88;;
75216;SDS011;63800;51.972;5.682;2024-01-30T03:27:50;12.85;;;9.10;;
75216;SDS011;63800;51.972;5.682;2024-01-30T03:30:16;13.02;;;9.35;;
75216;SDS011;63800;51.972;5.682;2024-01-30T03:32:42;14.20;;;9.52;;
75216;SDS011;63800;51.972;5.682;2024-01-30T03:35:08;16.73;;;9.27;;
75216;SDS011;63800;51.972;5.682;2024-01-30T03:37:33;15.85;;;9.38;;
75216;SDS011;63800;51.972;5.682;2024-01-30T03:39:59;14.38;;;9.73;;
75216;SDS011;63800;51.972;5.682;2024-01-30T03:42:24;14.35;;;9.68;;
75216;SDS011;63800;51.972;5.682;2024-01-30T03:44:50;13.77;;;9.65;;
75216;SDS011;63800;51.972;5.682;2024-01-30T03:47:20;11.90;;;8.90;;
75216;SDS011;63800;51.972;5.682;2024-01-30T03:49:45;13.80;;;9.23;;
75216;SDS011;63800;51.972;5.682;2024-01-30T03:52:11;14.75;;;9.38;;
75216;SDS011;63800;51.972;5.682;2024-01-30T03:54:36;12.90;;;9.10;;
75216;SDS011;63800;51.972;5.682;2024-01-30T03:57:02;15.65;;;9.63;;
75216;SDS011;63800;51.972;5.682;2024-01-30T03:59:28;16.30;;;10.20;;
75216;SDS011;63800;51.972;5.682;2024-01-30T04:01:53;12.48;;;8.63;;
75216;SDS011;63800;51.972;5.682;2024-01-30T04:04:19;13.45;;;9.38;;
75216;SDS011;63800;51.972;5.682;2024-01-30T04:06:45;12.70;;;9.40;;
75216;SDS011;63800;51.972;5.682;2024-01-30T04:09:11;14.45;;;9.38;;
75216;SDS011;63800;51.972;5.682;2024-01-30T04:11:38;14.32;;;9.88;;
75216;SDS011;63800;51.972;5.682;2024-01-30T04:14:07;12.75;;;9.02;;
75216;SDS011;63800;51.972;5.682;2024-01-30T04:16:33;13.73;;;9.55;;
75216;SDS011;63800;51.972;5.682;2024-01-30T04:18:58;14.68;;;8.90;;
75216;SDS011;63800;51.972;5.682;2024-01-30T04:21:24;12.95;;;9.18;;
75216;SDS011;63800;51.972;5.682;2024-01-30T04:23:50;15.02;;;9.98;;
75216;SDS011;63800;51.972;5.682;2024-01-30T04:26:16;14.07;;;9.27;;
75216;SDS011;63800;51.972;5.682;2024-01-30T04:28:42;14.88;;;9.32;;
75216;SDS011;63800;51.972;5.682;2024-01-30T04:31:09;15.10;;;9.30;;
75216;SDS011;63800;51.972;5.682;2024-01-30T04:33:34;17.83;;;9.20;;
75216;SDS011;63800;51.972;5.682;2024-01-30T04:36:00;15.55;;;9.55;;
75216;SDS011;63800;51.972;5.682;2024-01-30T04:38:25;12.98;;;9.43;;
75216;SDS011;63800;51.972;5.682;2024-01-30T04:40:51;16.95;;;8.95;;
75216;SDS011;63800;51.972;5.682;2024-01-30T04:43:16;12.40;;;9.15;;
75216;SDS011;63800;51.972;5.682;2024-01-30T04:45:41;15.57;;;9.73;;
75216;SDS011;63800;51.972;5.682;2024-01-30T04:48:07;15.65;;;9.88;;
75216;SDS011;63800;51.972;5.682;2024-01-30T04:50:32;15.20;;;8.82;;
75216;SDS011;63800;51.972;5.682;2024-01-30T04:52:58;13.02;;;9.23;;
75216;SDS011;63800;51.972;5.682;2024-01-30T04:55:23;15.45;;;9.55;;
75216;SDS011;63800;51.972;5.682;2024-01-30T04:57:49;12.70;;;8.80;;
75216;SDS011;63800;51.972;5.682;2024-01-30T05:00:14;14.00;;;8.93;;
75216;SDS011;63800;51.972;5.682;2024-01-30T05:02:40;14.65;;;8.27;;
75216;SDS011;63800;51.972;5.682;2024-01-30T05:05:06;12.70;;;8.85;;
75216;SDS011;63800;51.972;5.682;2024-01-30T05:07:32;13.50;;;9.35;;
75216;SDS011;63800;51.972;5.682;2024-01-30T05:09:58;17.30;;;9.65;;
75216;SDS011;63800;51.972;5.682;2024-01-30T05:12:23;16.27;;;9.95;;
75216;SDS011;63800;51.972;5.682;2024-01-30T05:14:49;16.25;;;9.32;;
75216;SDS011;63800;51.972;5.682;2024-01-30T05:17:14;15.45;;;9.52;;
75216;SDS011;63800;51.972;5.682;2024-01-30T05:19:39;15.65;;;10.48;;
75216;SDS011;63800;51.972;5.682;2024-01-30T05:22:05;14.13;;;9.65;;
75216;SDS011;63800;51.972;5.682;2024-01-30T05:24:30;13.95;;;9.00;;
75216;SDS011;63800;51.972;5.682;2024-01-30T05:26:57;15.52;;;9.07;;
75216;SDS011;63800;51.972;5.682;2024-01-30T05:29:22;14.88;;;9.48;;
75216;SDS011;63800;51.972;5.682;2024-01-30T05:31:48;14.00;;;8.65;;
75216;SDS011;63800;51.972;5.682;2024-01-30T05:34:13;12.35;;;7.63;;
75216;SDS011;63800;51.972;5.682;2024-01-30T05:36:38;13.85;;;8.45;;
75216;SDS011;63800;51.972;5.682;2024-01-30T05:39:04;13.35;;;7.57;;
75216;SDS011;63800;51.972;5.682;2024-01-30T05:41:30;10.15;;;7.47;;
75216;SDS011;63800;51.972;5.682;2024-01-30T05:43:55;14.88;;;8.63;;
75216;SDS011;63800;51.972;5.682;2024-01-30T05:46:20;12.85;;;8.68;;
75216;SDS011;63800;51.972;5.682;2024-01-30T05:48:46;14.35;;;8.80;;
75216;SDS011;63800;51.972;5.682;2024-01-30T05:51:12;13.98;;;8.18;;
75216;SDS011;63800;51.972;5.682;2024-01-30T05:53:37;13.10;;;8.55;;
75216;SDS011;63800;51.972;5.682;2024-01-30T05:56:03;14.32;;;8.02;;
75216;SDS011;63800;51.972;5.682;2024-01-30T05:58:29;13.52;;;8.70;;
75216;SDS011;63800;51.972;5.682;2024-01-30T06:00:56;14.10;;;8.18;;
75216;SDS011;63800;51.972;5.682;2024-01-30T06:03:21;12.70;;;8.82;;
75216;SDS011;63800;51.972;5.682;2024-01-30T06:05:47;15.00;;;9.25;;
75216;SDS011;63800;51.972;5.682;2024-01-30T06:08:12;15.60;;;9.18;;
75216;SDS011;63800;51.972;5.682;2024-01-30T06:10:38;15.93;;;9.30;;
75216;SDS011;63800;51.972;5.682;2024-01-30T06:13:04;15.82;;;9.00;;
75216;SDS011;63800;51.972;5.682;2024-01-30T06:15:29;14.80;;;9.30;;
75216;SDS011;63800;51.972;5.682;2024-01-30T06:17:55;13.27;;;8.77;;
75216;SDS011;63800;51.972;5.682;2024-01-30T06:20:20;13.43;;;8.60;;
75216;SDS011;63800;51.972;5.682;2024-01-30T06:22:46;14.23;;;9.13;;
75216;SDS011;63800;51.972;5.682;2024-01-30T06:25:11;13.63;;;8.30;;
75216;SDS011;63800;51.972;5.682;2024-01-30T06:27:37;13.18;;;8.63;;
75216;SDS011;63800;51.972;5.682;2024-01-30T06:30:03;14.77;;;8.77;;
75216;SDS011;63800;51.972;5.682;2024-01-30T06:32:30;12.38;;;8.27;;
75216;SDS011;63800;51.972;5.682;2024-01-30T06:34:59;12.93;;;8.25;;
75216;SDS011;63800;51.972;5.682;2024-01-30T06:37:25;11.82;;;8.45;;
75216;SDS011;63800;51.972;5.682;2024-01-30T06:39:50;13.07;;;8.82;;
75216;SDS011;63800;51.972;5.682;2024-01-30T06:42:17;12.55;;;9.00;;
75216;SDS011;63800;51.972;5.682;2024-01-30T06:44:42;11.90;;;8.30;;
75216;SDS011;63800;51.972;5.682;2024-01-30T06:47:08;12.43;;;8.25;;
75216;SDS011;63800;51.972;5.682;2024-01-30T06:49:33;12.73;;;8.55;;
75216;SDS011;63800;51.972;5.682;2024-01-30T06:51:59;13.68;;;8.20;;
75216;SDS011;63800;51.972;5.682;2024-01-30T06:54:25;13.68;;;8.35;;
75216;SDS011;63800;51.972;5.682;2024-01-30T06:56:50;12.30;;;8.38;;
75216;SDS011;63800;51.972;5.682;2024-01-30T06:59:16;12.88;;;8.32;;
75216;SDS011;63800;51.972;5.682;2024-01-30T07:01:41;11.68;;;8.38;;
75216;SDS011;63800;51.972;5.682;2024-01-30T07:04:06;12.07;;;8.90;;
75216;SDS011;63800;51.972;5.682;2024-01-30T07:06:32;13.57;;;8.55;;
75216;SDS011;63800;51.972;5.682;2024-01-30T07:08:57;12.93;;;8.57;;
75216;SDS011;63800;51.972;5.682;2024-01-30T07:11:23;14.10;;;8.88;;
75216;SDS011;63800;51.972;5.682;2024-01-30T07:13:52;12.75;;;8.25;;
75216;SDS011;63800;51.972;5.682;2024-01-30T07:16:17;12.57;;;8.00;;
75216;SDS011;63800;51.972;5.682;2024-01-30T07:18:43;11.43;;;7.93;;
75216;SDS011;63800;51.972;5.682;2024-01-30T07:21:09;13.02;;;8.18;;
75216;SDS011;63800;51.972;5.682;2024-01-30T07:23:35;13.05;;;8.45;;
75216;SDS011;63800;51.972;5.682;2024-01-30T07:26:03;11.93;;;8.07;;
75216;SDS011;63800;51.972;5.682;2024-01-30T07:28:33;12.30;;;7.82;;
75216;SDS011;63800;51.972;5.682;2024-01-30T07:31:00;11.30;;;7.90;;
75216;SDS011;63800;51.972;5.682;2024-01-30T07:33:27;10.77;;;7.78;;
75216;SDS011;63800;51.972;5.682;2024-01-30T07:35:52;14.23;;;8.55;;
75216;SDS011;63800;51.972;5.682;2024-01-30T07:38:18;12.98;;;8.85;;
75216;SDS011;63800;51.972;5.682;2024-01-30T07:40:44;14.77;;;9.57;;
75216;SDS011;63800;51.972;5.682;2024-01-30T07:43:10;14.90;;;9.07;;
75216;SDS011;63800;51.972;5.682;2024-01-30T07:45:36;13.38;;;8.52;;
75216;SDS011;63800;51.972;5.682;2024-01-30T07:48:02;13.30;;;8.80;;
75216;SDS011;63800;51.972;5.682;2024-01-30T07:50:28;12.85;;;8.30;;
75216;SDS011;63800;51.972;5.682;2024-01-30T07:52:55;14.20;;;8.70;;
75216;SDS011;63800;51.972;5.682;2024-01-30T07:55:21;13.48;;;8.75;;
75216;SDS011;63800;51.972;5.682;2024-01-30T07:57:49;13.98;;;8.70;;
75216;SDS011;63800;51.972;5.682;2024-01-30T08:00:17;14.52;;;9.35;;
75216;SDS011;63800;51.972;5.682;2024-01-30T08:02:44;13.32;;;8.98;;
75216;SDS011;63800;51.972;5.682;2024-01-30T08:05:10;18.00;;;9.02;;
75216;SDS011;63800;51.972;5.682;2024-01-30T08:07:36;12.65;;;8.20;;
75216;SDS011;63800;51.972;5.682;2024-01-30T08:10:02;10.90;;;8.07;;
75216;SDS011;63800;51.972;5.682;2024-01-30T08:12:28;13.10;;;8.35;;
75216;SDS011;63800;51.972;5.682;2024-01-30T08:14:54;13.18;;;8.70;;
75216;SDS011;63800;51.972;5.682;2024-01-30T08:17:19;13.75;;;8.43;;
75216;SDS011;63800;51.972;5.682;2024-01-30T08:19:45;11.35;;;8.05;;
75216;SDS011;63800;51.972;5.682;2024-01-30T08:22:11;14.85;;;9.10;;
75216;SDS011;63800;51.972;5.682;2024-01-30T08:24:37;12.73;;;8.45;;
75216;SDS011;63800;51.972;5.682;2024-01-30T08:27:02;14.95;;;8.45;;
75216;SDS011;63800;51.972;5.682;2024-01-30T08:29:30;14.50;;;8.40;;
75216;SDS011;63800;51.972;5.682;2024-01-30T08:31:55;14.23;;;9.27;;
75216;SDS011;63800;51.972;5.682;2024-01-30T08:34:20;11.95;;;8.93;;
75216;SDS011;63800;51.972;5.682;2024-01-30T08:36:46;14.98;;;8.80;;
75216;SDS011;63800;51.972;5.682;2024-01-30T08:39:11;14.15;;;8.60;;
75216;SDS011;63800;51.972;5.682;2024-01-30T08:41:37;14.18;;;8.45;;
75216;SDS011;63800;51.972;5.682;2024-01-30T08:44:02;13.25;;;8.35;;
75216;SDS011;63800;51.972;5.682;2024-01-30T08:46:29;13.30;;;8.60;;
75216;SDS011;63800;51.972;5.682;2024-01-30T08:48:55;10.90;;;8.07;;
75216;SDS011;63800;51.972;5.682;2024-01-30T08:51:21;11.85;;;8.60;;
75216;SDS011;63800;51.972;5.682;2024-01-30T08:53:47;15.55;;;9.48;;
75216;SDS011;63800;51.972;5.682;2024-01-30T08:56:12;14.30;;;9.32;;
75216;SDS011;63800;51.972;5.682;2024-01-30T08:58:38;16.73;;;9.50;;
75216;SDS011;63800;51.972;5.682;2024-01-30T09:01:04;10.95;;;8.43;;
75216;SDS011;63800;51.972;5.682;2024-01-30T09:03:31;12.13;;;8.93;;
75216;SDS011;63800;51.972;5.682;2024-01-30T09:05:56;14.68;;;8.95;;
75216;SDS011;63800;51.972;5.682;2024-01-30T09:08:22;15.18;;;8.93;;
75216;SDS011;63800;51.972;5.682;2024-01-30T09:10:47;14.45;;;8.82;;
75216;SDS011;63800;51.972;5.682;2024-01-30T09:13:14;13.20;;;8.98;;
75216;SDS011;63800;51.972;5.682;2024-01-30T09:15:40;13.68;;;9.07;;
75216;SDS011;63800;51.972;5.682;2024-01-30T09:18:06;12.20;;;8.65;;
75216;SDS011;63800;51.972;5.682;2024-01-30T09:20:32;13.27;;;9.45;;
75216;SDS011;63800;51.972;5.682;2024-01-30T09:22:57;16.30;;;8.68;;
75216;SDS011;63800;51.972;5.682;2024-01-30T09:25:22;13.13;;;8.93;;
75216;SDS011;63800;51.972;5.682;2024-01-30T09:27:48;11.90;;;8.38;;
75216;SDS011;63800;51.972;5.682;2024-01-30T09:30:14;13.60;;;9.07;;
75216;SDS011;63800;51.972;5.682;2024-01-30T09:32:39;14.00;;;8.77;;
75216;SDS011;63800;51.972;5.682;2024-01-30T09:35:05;14.40;;;9.32;;
75216;SDS011;63800;51.972;5.682;2024-01-30T09:37:31;15.82;;;9.50;;
75216;SDS011;63800;51.972;5.682;2024-01-30T09:39:56;14.68;;;9.70;;
75216;SDS011;63800;51.972;5.682;2024-01-30T09:42:33;14.70;;;9.05;;
75216;SDS011;63800;51.972;5.682;2024-01-30T09:45:03;17.13;;;10.70;;
75216;SDS011;63800;51.972;5.682;2024-01-30T09:47:39;15.25;;;9.43;;
75216;SDS011;63800;51.972;5.682;2024-01-30T09:50:09;17.30;;;10.35;;
75216;SDS011;63800;51.972;5.682;2024-01-30T09:52:36;14.43;;;9.70;;
75216;SDS011;63800;51.972;5.682;2024-01-30T09:55:02;16.42;;;10.30;;
75216;SDS011;63800;51.972;5.682;2024-01-30T09:57:28;16.73;;;9.30;;
75216;SDS011;63800;51.972;5.682;2024-01-30T09:59:54;17.52;;;9.48;;
75216;SDS011;63800;51.972;5.682;2024-01-30T10:02:20;13.15;;;9.05;;
75216;SDS011;63800;51.972;5.682;2024-01-30T10:04:50;14.13;;;9.35;;
75216;SDS011;63800;51.972;5.682;2024-01-30T10:07:16;13.43;;;9.27;;
75216;SDS011;63800;51.972;5.682;2024-01-30T10:09:42;16.05;;;9.10;;
75216;SDS011;63800;51.972;5.682;2024-01-30T10:12:11;14.73;;;9.35;;
75216;SDS011;63800;51.972;5.682;2024-01-30T10:14:40;14.25;;;9.23;;
75216;SDS011;63800;51.972;5.682;2024-01-30T10:17:10;13.07;;;8.90;;
75216;SDS011;63800;51.972;5.682;2024-01-30T10:19:37;15.32;;;10.25;;
75216;SDS011;63800;51.972;5.682;2024-01-30T10:22:03;15.57;;;9.68;;
75216;SDS011;63800;51.972;5.682;2024-01-30T10:24:29;14.63;;;9.93;;
75216;SDS011;63800;51.972;5.682;2024-01-30T10:26:55;15.43;;;9.35;;
75216;SDS011;63800;51.972;5.682;2024-01-30T10:29:20;12.57;;;9.43;;
75216;SDS011;63800;51.972;5.682;2024-01-30T10:31:56;17.00;;;9.88;;
75216;SDS011;63800;51.972;5.682;2024-01-30T10:34:23;16.88;;;9.73;;
75216;SDS011;63800;51.972;5.682;2024-01-30T10:36:49;13.93;;;9.25;;
75216;SDS011;63800;51.972;5.682;2024-01-30T10:39:18;16.67;;;9.70;;
75216;SDS011;63800;51.972;5.682;2024-01-30T10:41:46;14.05;;;9.07;;
75216;SDS011;63800;51.972;5.682;2024-01-30T10:44:13;12.18;;;8.48;;
75216;SDS011;63800;51.972;5.682;2024-01-30T10:46:45;12.70;;;8.80;;
75216;SDS011;63800;51.972;5.682;2024-01-30T10:49:16;16.38;;;9.20;;
75216;SDS011;63800;51.972;5.682;2024-01-30T10:51:42;15.07;;;9.00;;
75216;SDS011;63800;51.972;5.682;2024-01-30T10:54:08;13.00;;;8.15;;
75216;SDS011;63800;51.972;5.682;2024-01-30T10:56:35;11.85;;;8.18;;
75216;SDS011;63800;51.972;5.682;2024-01-30T10:59:01;15.18;;;9.00;;
75216;SDS011;63800;51.972;5.682;2024-01-30T11:01:28;14.15;;;8.73;;
75216;SDS011;63800;51.972;5.682;2024-01-30T11:03:55;13.93;;;9.60;;
75216;SDS011;63800;51.972;5.682;2024-01-30T11:06:22;13.15;;;9.60;;
75216;SDS011;63800;51.972;5.682;2024-01-30T11:09:21;13.75;;;8.88;;
75216;SDS011;63800;51.972;5.682;2024-01-30T11:11:49;14.02;;;10.25;;
75216;SDS011;63800;51.972;5.682;2024-01-30T11:14:15;14.82;;;9.70;;
75216;SDS011;63800;51.972;5.682;2024-01-30T11:16:40;13.10;;;9.57;;
75216;SDS011;63800;51.972;5.682;2024-01-30T11:19:10;15.77;;;10.10;;
75216;SDS011;63800;51.972;5.682;2024-01-30T11:21:43;14.82;;;9.70;;
75216;SDS011;63800;51.972;5.682;2024-01-30T11:24:08;19.05;;;10.95;;
75216;SDS011;63800;51.972;5.682;2024-01-30T11:26:34;17.17;;;10.40;;
75216;SDS011;63800;51.972;5.682;2024-01-30T11:29:02;15.88;;;10.00;;
75216;SDS011;63800;51.972;5.682;2024-01-30T11:31:29;16.58;;;9.73;;
75216;SDS011;63800;51.972;5.682;2024-01-30T11:33:55;16.38;;;9.80;;
75216;SDS011;63800;51.972;5.682;2024-01-30T11:36:23;14.98;;;9.95;;
75216;SDS011;63800;51.972;5.682;2024-01-30T11:38:51;15.20;;;10.20;;
75216;SDS011;63800;51.972;5.682;2024-01-30T11:41:16;14.35;;;9.55;;
75216;SDS011;63800;51.972;5.682;2024-01-30T11:43:43;15.73;;;10.50;;
75216;SDS011;63800;51.972;5.682;2024-01-30T11:46:15;13.45;;;9.13;;
75216;SDS011;63800;51.972;5.682;2024-01-30T11:48:41;11.65;;;8.80;;
75216;SDS011;63800;51.972;5.682;2024-01-30T11:51:06;15.02;;;9.20;;
75216;SDS011;63800;51.972;5.682;2024-01-30T11:53:32;13.50;;;9.05;;
75216;SDS011;63800;51.972;5.682;2024-01-30T11:55:57;13.82;;;8.25;;
75216;SDS011;63800;51.972;5.682;2024-01-30T11:58:24;12.98;;;7.70;;
75216;SDS011;63800;51.972;5.682;2024-01-30T12:00:57;13.25;;;7.95;;
75216;SDS011;63800;51.972;5.682;2024-01-30T12:03:23;13.18;;;7.80;;
75216;SDS011;63800;51.972;5.682;2024-01-30T12:05:54;13.80;;;7.40;;
75216;SDS011;63800;51.972;5.682;2024-01-30T12:08:26;12.63;;;7.93;;
75216;SDS011;63800;51.972;5.682;2024-01-30T12:10:58;12.30;;;7.50;;
75216;SDS011;63800;51.972;5.682;2024-01-30T12:13:24;8.80;;;5.93;;
75216;SDS011;63800;51.972;5.682;2024-01-30T12:15:51;11.68;;;5.60;;
75216;SDS011;63800;51.972;5.682;2024-01-30T12:18:18;12.82;;;6.18;;
75216;SDS011;63800;51.972;5.682;2024-01-30T12:20:44;8.63;;;4.88;;
75216;SDS011;63800;51.972;5.682;2024-01-30T12:23:09;7.18;;;4.25;;
75216;SDS011;63800;51.972;5.682;2024-01-30T12:25:37;8.55;;;4.35;;
75216;SDS011;63800;51.972;5.682;2024-01-30T12:28:03;7.75;;;4.30;;
75216;SDS011;63800;51.972;5.682;2024-01-30T12:30:29;8.10;;;3.33;;
75216;SDS011;63800;51.972;5.682;2024-01-30T12:32:55;7.20;;;3.53;;
75216;SDS011;63800;51.972;5.682;2024-01-30T12:35:20;4.25;;;2.55;;
75216;SDS011;63800;51.972;5.682;2024-01-30T12:37:46;4.32;;;2.38;;
75216;SDS011;63800;51.972;5.682;2024-01-30T12:40:16;5.75;;;2.08;;
75216;SDS011;63800;51.972;5.682;2024-01-30T12:42:42;4.60;;;1.92;;
75216;SDS011;63800;51.972;5.682;2024-01-30T12:45:11;4.88;;;2.00;;
75216;SDS011;63800;51.972;5.682;2024-01-30T12:47:36;6.43;;;2.20;;
75216;SDS011;63800;51.972;5.682;2024-01-30T12:50:02;4.03;;;1.80;;
75216;SDS011;63800;51.972;5.682;2024-01-30T12:52:28;3.40;;;1.75;;
75216;SDS011;63800;51.972;5.682;2024-01-30T12:54:54;5.47;;;1.90;;
75216;SDS011;63800;51.972;5.682;2024-01-30T12:57:19;4.68;;;2.08;;
75216;SDS011;63800;51.972;5.682;2024-01-30T12:59:45;4.13;;;1.80;;
75216;SDS011;63800;51.972;5.682;2024-01-30T13:02:14;3.50;;;1.92;;
75216;SDS011;63800;51.972;5.682;2024-01-30T13:04:40;4.82;;;1.98;;
75216;SDS011;63800;51.972;5.682;2024-01-30T13:07:05;3.03;;;1.55;;
75216;SDS011;63800;51.972;5.682;2024-01-30T13:09:31;3.17;;;1.60;;
75216;SDS011;63800;51.972;5.682;2024-01-30T13:11:56;4.32;;;1.73;;
75216;SDS011;63800;51.972;5.682;2024-01-30T13:14:24;4.15;;;1.90;;
75216;SDS011;63800;51.972;5.682;2024-01-30T13:16:49;4.00;;;1.95;;
75216;SDS011;63800;51.972;5.682;2024-01-30T13:19:14;3.28;;;1.90;;
75216;SDS011;63800;51.972;5.682;2024-01-30T13:21:41;4.55;;;3.00;;
75216;SDS011;63800;51.972;5.682;2024-01-30T13:24:06;7.15;;;3.55;;
75216;SDS011;63800;51.972;5.682;2024-01-30T13:26:32;7.68;;;3.70;;
75216;SDS011;63800;51.972;5.682;2024-01-30T13:28:58;9.90;;;3.70;;
75216;SDS011;63800;51.972;5.682;2024-01-30T13:31:23;7.60;;;3.70;;
75216;SDS011;63800;51.972;5.682;2024-01-30T13:33:50;6.80;;;3.72;;
75216;SDS011;63800;51.972;5.682;2024-01-30T13:36:15;9.73;;;4.05;;
75216;SDS011;63800;51.972;5.682;2024-01-30T13:38:41;8.18;;;4.30;;
75216;SDS011;63800;51.972;5.682;2024-01-30T13:41:06;9.57;;;4.95;;
75216;SDS011;63800;51.972;5.682;2024-01-30T13:43:32;9.18;;;4.63;;
75216;SDS011;63800;51.972;5.682;2024-01-30T13:45:57;8.50;;;4.63;;
75216;SDS011;63800;51.972;5.682;2024-01-30T13:48:23;8.80;;;4.07;;
75216;SDS011;63800;51.972;5.682;2024-01-30T13:50:49;9.95;;;5.13;;
75216;SDS011;63800;51.972;5.682;2024-01-30T13:53:15;13.60;;;5.07;;
75216;SDS011;63800;51.972;5.682;2024-01-30T13:55:40;7.88;;;4.50;;
75216;SDS011;63800;51.972;5.682;2024-01-30T13:58:06;7.97;;;4.05;;
75216;SDS011;63800;51.972;5.682;2024-01-30T14:00:32;6.57;;;4.45;;
75216;SDS011;63800;51.972;5.682;2024-01-30T14:02:58;10.13;;;4.78;;
75216;SDS011;63800;51.972;5.682;2024-01-30T14:05:24;4.72;;;3.70;;
75216;SDS011;63800;51.972;5.682;2024-01-30T14:07:51;4.90;;;3.20;;
75216;SDS011;63800;51.972;5.682;2024-01-30T14:10:17;10.40;;;3.92;;
75216;SDS011;63800;51.972;5.682;2024-01-30T14:12:42;5.72;;;3.70;;
75216;SDS011;63800;51.972;5.682;2024-01-30T14:15:09;7.05;;;3.78;;
75216;SDS011;63800;51.972;5.682;2024-01-30T14:17:35;8.70;;;4.32;;
75216;SDS011;63800;51.972;5.682;2024-01-30T14:20:02;10.10;;;3.95;;
75216;SDS011;63800;51.972;5.682;2024-01-30T14:22:29;8.63;;;4.00;;
75216;SDS011;63800;51.972;5.682;2024-01-30T14:24:55;6.60;;;4.63;;
75216;SDS011;63800;51.972;5.682;2024-01-30T14:27:21;7.90;;;4.10;;
75216;SDS011;63800;51.972;5.682;2024-01-30T14:29:47;5.07;;;3.80;;